Shottisi jossa on sitä jotain....

<< < (245/1814) > >>

OttoPOI:
Quote

Se muuten on McCarran Intl 
Ja on melko upeita noi kuvat. 

Oho... Korjataanpas 

Tuntuu näitä kirjttussvörheetä tulevan aika paljon 

Pe7e:
Quote

34020G25KT

Eihän toi oo ees paha! 

Tässä vähän lisää sivutuulierotiikkaa <3 

LPMA 121930Z 01022G34KT 14/10 Q1018
[ Attachment not found - or removed ]

OttoPOI:
Taasko jään kakkoseksi  Nooh, puolustuksena sanon, että Falcon 50 on paljon pienempi kone kuin tuo 7657 

EDIT_ Siisniinjuu 

Mikk0:
Quote

Taasko jään kakkoseksi Nooh, puolustuksena sanon, että Falcon 50 on paljon pienempi kone kuin tuo 767

Vai olisko 757 ?

Pe7e:
Quote

Taasko jään kakkoseksi  Nooh, puolustuksena sanon, että Falcon 50 on paljon pienempi kone kuin tuo 7657 

EDIT_ Siisniinjuu 

Hehe, no vitsi vitsinä 

Navigation

Up one level

Next page

Previous page